SKRGSKPE

Guest
Details From SKRG - JOSE MARIA CORDOVA
To SKPE - MATECANA
Flight Number -
Tags generated
Created
Modified
Stats Distance 84 nm / 155 km
Max Altitude 4,200 ft / 1,280 m
Waypoints 3
Social Downloads 2
Likes 0
Share VATSIM

Download

Looking for another format? Having issues loading an existing format? Contact us
Advertisement - Login to hide

Notes

Basic altitude profile: - Ascent Rate: 2500ft/min - Ascent Speed: 250kts - Cruise Altitude: 35000ft - Cruise Speed: 420kts - Descent Rate: 1500ft/min - Descent Speed: 250kts Options: - Use NATs: yes - Use PACOTS: yes - Use low airways: yes - Use high airways: yes

Route

SKRG MATRO SKPE

ID Type Via Altitude Latitude Longitude Leg Dist Tot Dist Heading (true) Name
O SKRG APT - 0 ft / 0 m 6.16453˚ -75.42312˚ - 0 nm - JOSE MARIA CORDOVA
MATRO FIX - 4,200 ft / 1,280 m 5.14111˚ -75.71056˚ 63 nm 63 nm 196° / 196° -
O SKPE APT - 0 ft / 0 m 4.81267˚ -75.73952˚ 19 nm 83 nm 185° / 185° MATECANA

Altitude Profile

Advertisement - Login to hide

SKRG

Details ICAO SKRG (MDE)
Name JOSE MARIA CORDOVA
Region Colombia
Timezone America/Bogota (UTC-5.0)
Stats Elevation 6,955 ft / 2,120 m (AMSL)
Location 6.164532° -75.423119°
Runways 1
Magnetic Variation 6.631° W

METAR

SKRG 150100Z 02004KT 9999 FEW020 15/15 A3026

Decode

TAF

TAF SKRG 141700Z 141818 09008KT 9999 SCT020 TEMPO 1421/1423 8000 VCSH SCT017TCU BECMG 1500/1502 VRB02KT BKN017 TEMPO 1508/1514 5000 BR BECMG 1514/1515 FEW017 TX23/1419Z TN12/1511Z

Decode

Departure Runways

ID Width Length Bearing (true) Bearing (mag) Surface Threshold Offset Overrun Length
18 148 ft / 45 m 11,547 ft / 3,520 m 179.62° 186.25° Asphalt 0 ft / 0 m 98 ft / 30 m
36 148 ft / 45 m 11,547 ft / 3,520 m 359.62° 6.25° Asphalt 0 ft / 0 m 98 ft / 30 m

SKPE

Details ICAO SKPE (PEI)
Name MATECANA
Region Colombia
Timezone America/Bogota (UTC-5.0)
Stats Elevation 4,416 ft / 1,346 m (AMSL)
Location 4.812673° -75.739518°
Runways 1
Magnetic Variation 6.216° W

METAR

SKPE 150100Z 10003KT 9999 FEW017 SCT080 23/18 A3000

Decode

TAF

TAF SKPE 141700Z 141818 31006KT 9999 FEW020 PROB40 TEMPO 1421/1423 8000 VCSH SCT015TCU BECMG 1423/1501 VRB02KT SCT017 BKN090 TEMPO 1510/15123 8000 MIFG TX28/1419Z TN17/1511Z

Decode

Destination Runways

ID Width Length Bearing (true) Bearing (mag) Surface Threshold Offset Overrun Length
08 148 ft / 45 m 6,628 ft / 2,020 m 72.24° 78.46° Asphalt 0 ft / 0 m 0 ft / 0 m
26 148 ft / 45 m 6,628 ft / 2,020 m 252.24° 258.46° Asphalt 0 ft / 0 m 0 ft / 0 m

Popular Alternatives